sensor_id;sensor_type;location;lat;lon;timestamp;P1;durP1;ratioP1;P2;durP2;ratioP2
34697;SDS011;61391;50.922;6.928;2023-05-19T00:00:40;1.50;;;0.98;;
34697;SDS011;61391;50.922;6.928;2023-05-19T00:03:08;1.33;;;1.20;;
34697;SDS011;61391;50.922;6.928;2023-05-19T00:05:36;2.25;;;1.60;;
34697;SDS011;61391;50.922;6.928;2023-05-19T00:08:10;2.00;;;1.67;;
34697;SDS011;61391;50.922;6.928;2023-05-19T00:10:37;3.20;;;1.83;;
34697;SDS011;61391;50.922;6.928;2023-05-19T00:13:03;3.45;;;2.10;;
34697;SDS011;61391;50.922;6.928;2023-05-19T00:15:29;2.47;;;1.33;;
34697;SDS011;61391;50.922;6.928;2023-05-19T00:17:56;2.42;;;1.33;;
34697;SDS011;61391;50.922;6.928;2023-05-19T00:20:22;3.22;;;1.55;;
34697;SDS011;61391;50.922;6.928;2023-05-19T00:22:47;5.43;;;1.20;;
34697;SDS011;61391;50.922;6.928;2023-05-19T00:25:14;1.73;;;0.90;;
34697;SDS011;61391;50.922;6.928;2023-05-19T00:27:40;1.80;;;1.25;;
34697;SDS011;61391;50.922;6.928;2023-05-19T00:30:05;1.75;;;1.17;;
34697;SDS011;61391;50.922;6.928;2023-05-19T00:32:31;1.20;;;1.00;;
34697;SDS011;61391;50.922;6.928;2023-05-19T00:34:58;2.03;;;1.08;;
34697;SDS011;61391;50.922;6.928;2023-05-19T00:37:25;2.10;;;1.20;;
34697;SDS011;61391;50.922;6.928;2023-05-19T00:39:51;4.05;;;1.50;;
34697;SDS011;61391;50.922;6.928;2023-05-19T00:42:17;3.47;;;1.35;;
34697;SDS011;61391;50.922;6.928;2023-05-19T00:44:45;4.68;;;2.00;;
34697;SDS011;61391;50.922;6.928;2023-05-19T00:47:10;2.58;;;1.42;;
34697;SDS011;61391;50.922;6.928;2023-05-19T00:49:36;3.53;;;1.95;;
34697;SDS011;61391;50.922;6.928;2023-05-19T00:52:01;2.90;;;2.03;;
34697;SDS011;61391;50.922;6.928;2023-05-19T00:54:29;4.40;;;1.52;;
34697;SDS011;61391;50.922;6.928;2023-05-19T00:56:57;1.90;;;1.35;;
34697;SDS011;61391;50.922;6.928;2023-05-19T00:59:24;3.90;;;1.63;;
34697;SDS011;61391;50.922;6.928;2023-05-19T01:01:50;2.97;;;1.40;;
34697;SDS011;61391;50.922;6.928;2023-05-19T01:04:19;2.15;;;1.40;;
34697;SDS011;61391;50.922;6.928;2023-05-19T01:06:46;3.08;;;1.40;;
34697;SDS011;61391;50.922;6.928;2023-05-19T01:09:13;3.50;;;1.55;;
34697;SDS011;61391;50.922;6.928;2023-05-19T01:11:40;2.30;;;1.38;;
34697;SDS011;61391;50.922;6.928;2023-05-19T01:14:06;2.60;;;1.85;;
34697;SDS011;61391;50.922;6.928;2023-05-19T01:16:33;3.15;;;1.50;;
34697;SDS011;61391;50.922;6.928;2023-05-19T01:32:30;3.38;;;1.80;;
34697;SDS011;61391;50.922;6.928;2023-05-19T01:34:58;3.40;;;1.73;;
34697;SDS011;61391;50.922;6.928;2023-05-19T01:37:26;3.42;;;1.52;;
34697;SDS011;61391;50.922;6.928;2023-05-19T01:39:53;2.85;;;1.90;;
34697;SDS011;61391;50.922;6.928;2023-05-19T01:42:20;2.38;;;1.70;;
34697;SDS011;61391;50.922;6.928;2023-05-19T01:48:09;4.38;;;2.03;;
34697;SDS011;61391;50.922;6.928;2023-05-19T01:50:36;2.97;;;1.70;;
34697;SDS011;61391;50.922;6.928;2023-05-19T01:53:02;3.22;;;1.75;;
34697;SDS011;61391;50.922;6.928;2023-05-19T01:55:29;3.30;;;1.83;;
34697;SDS011;61391;50.922;6.928;2023-05-19T01:58:00;3.45;;;1.80;;
34697;SDS011;61391;50.922;6.928;2023-05-19T02:00:53;3.17;;;1.80;;
34697;SDS011;61391;50.922;6.928;2023-05-19T02:06:40;3.63;;;2.13;;
34697;SDS011;61391;50.922;6.928;2023-05-19T02:24:37;4.22;;;2.35;;
34697;SDS011;61391;50.922;6.928;2023-05-19T02:27:03;2.10;;;1.70;;
34697;SDS011;61391;50.922;6.928;2023-05-19T02:29:29;2.45;;;1.65;;
34697;SDS011;61391;50.922;6.928;2023-05-19T02:31:55;4.07;;;1.90;;
34697;SDS011;61391;50.922;6.928;2023-05-19T02:34:20;2.97;;;1.75;;
34697;SDS011;61391;50.922;6.928;2023-05-19T02:36:46;1.85;;;1.65;;
34697;SDS011;61391;50.922;6.928;2023-05-19T02:39:13;5.63;;;2.47;;
34697;SDS011;61391;50.922;6.928;2023-05-19T02:41:39;4.20;;;2.25;;
34697;SDS011;61391;50.922;6.928;2023-05-19T02:44:05;5.18;;;2.05;;
34697;SDS011;61391;50.922;6.928;2023-05-19T02:49:53;4.70;;;1.80;;
34697;SDS011;61391;50.922;6.928;2023-05-19T02:52:19;3.20;;;1.77;;
34697;SDS011;61391;50.922;6.928;2023-05-19T02:54:45;3.15;;;1.85;;
34697;SDS011;61391;50.922;6.928;2023-05-19T02:57:10;3.90;;;2.20;;
34697;SDS011;61391;50.922;6.928;2023-05-19T02:59:36;3.63;;;2.70;;
34697;SDS011;61391;50.922;6.928;2023-05-19T03:02:01;2.22;;;1.98;;
34697;SDS011;61391;50.922;6.928;2023-05-19T03:04:28;3.58;;;2.35;;
34697;SDS011;61391;50.922;6.928;2023-05-19T03:06:54;2.83;;;2.00;;
34697;SDS011;61391;50.922;6.928;2023-05-19T03:09:19;2.80;;;1.98;;
34697;SDS011;61391;50.922;6.928;2023-05-19T03:11:45;3.42;;;2.20;;
34697;SDS011;61391;50.922;6.928;2023-05-19T03:14:11;3.45;;;1.95;;
34697;SDS011;61391;50.922;6.928;2023-05-19T03:16:38;4.88;;;2.38;;
34697;SDS011;61391;50.922;6.928;2023-05-19T03:19:05;4.85;;;2.08;;
34697;SDS011;61391;50.922;6.928;2023-05-19T03:21:32;4.60;;;2.10;;
34697;SDS011;61391;50.922;6.928;2023-05-19T03:23:58;2.90;;;2.33;;
34697;SDS011;61391;50.922;6.928;2023-05-19T03:26:24;3.13;;;2.22;;
34697;SDS011;61391;50.922;6.928;2023-05-19T03:28:50;4.45;;;2.20;;
34697;SDS011;61391;50.922;6.928;2023-05-19T03:31:16;3.55;;;2.22;;
34697;SDS011;61391;50.922;6.928;2023-05-19T03:33:42;3.20;;;2.40;;
34697;SDS011;61391;50.922;6.928;2023-05-19T03:36:07;2.50;;;2.10;;
34697;SDS011;61391;50.922;6.928;2023-05-19T03:38:33;3.88;;;2.22;;
34697;SDS011;61391;50.922;6.928;2023-05-19T03:40:59;2.90;;;2.33;;
34697;SDS011;61391;50.922;6.928;2023-05-19T03:43:25;4.45;;;2.80;;
34697;SDS011;61391;50.922;6.928;2023-05-19T03:45:51;4.53;;;2.15;;
34697;SDS011;61391;50.922;6.928;2023-05-19T03:48:17;4.10;;;1.90;;
34697;SDS011;61391;50.922;6.928;2023-05-19T03:54:06;2.47;;;2.10;;
34697;SDS011;61391;50.922;6.928;2023-05-19T03:56:32;2.80;;;2.20;;
34697;SDS011;61391;50.922;6.928;2023-05-19T03:58:58;2.00;;;1.80;;
34697;SDS011;61391;50.922;6.928;2023-05-19T04:01:24;2.92;;;1.90;;
34697;SDS011;61391;50.922;6.928;2023-05-19T04:03:49;4.38;;;2.30;;
34697;SDS011;61391;50.922;6.928;2023-05-19T04:06:15;2.33;;;2.13;;
34697;SDS011;61391;50.922;6.928;2023-05-19T04:08:41;3.85;;;2.28;;
34697;SDS011;61391;50.922;6.928;2023-05-19T04:11:08;4.50;;;2.22;;
34697;SDS011;61391;50.922;6.928;2023-05-19T04:13:34;2.78;;;2.20;;
34697;SDS011;61391;50.922;6.928;2023-05-19T04:15:59;3.10;;;2.00;;
34697;SDS011;61391;50.922;6.928;2023-05-19T04:18:25;4.25;;;2.28;;
34697;SDS011;61391;50.922;6.928;2023-05-19T04:20:51;4.22;;;2.20;;
34697;SDS011;61391;50.922;6.928;2023-05-19T04:26:39;3.17;;;2.38;;
34697;SDS011;61391;50.922;6.928;2023-05-19T04:29:09;4.07;;;1.77;;
34697;SDS011;61391;50.922;6.928;2023-05-19T04:31:37;2.33;;;1.90;;
34697;SDS011;61391;50.922;6.928;2023-05-19T04:34:06;2.35;;;1.90;;
34697;SDS011;61391;50.922;6.928;2023-05-19T04:36:34;6.10;;;2.17;;
34697;SDS011;61391;50.922;6.928;2023-05-19T04:39:01;2.55;;;2.25;;
34697;SDS011;61391;50.922;6.928;2023-05-19T04:41:31;2.42;;;2.15;;
34697;SDS011;61391;50.922;6.928;2023-05-19T04:43:58;2.35;;;1.85;;
34697;SDS011;61391;50.922;6.928;2023-05-19T04:46:24;6.20;;;2.60;;
34697;SDS011;61391;50.922;6.928;2023-05-19T04:48:51;2.95;;;2.10;;
34697;SDS011;61391;50.922;6.928;2023-05-19T04:51:21;3.30;;;2.30;;
34697;SDS011;61391;50.922;6.928;2023-05-19T04:53:51;5.50;;;2.50;;
34697;SDS011;61391;50.922;6.928;2023-05-19T04:56:20;3.63;;;2.42;;
34697;SDS011;61391;50.922;6.928;2023-05-19T04:58:46;2.70;;;2.17;;
34697;SDS011;61391;50.922;6.928;2023-05-19T05:01:12;3.38;;;2.40;;
34697;SDS011;61391;50.922;6.928;2023-05-19T05:03:39;3.20;;;2.05;;
34697;SDS011;61391;50.922;6.928;2023-05-19T05:08:58;3.70;;;2.33;;
34697;SDS011;61391;50.922;6.928;2023-05-19T05:11:24;2.42;;;1.90;;
34697;SDS011;61391;50.922;6.928;2023-05-19T05:13:50;4.20;;;1.95;;
34697;SDS011;61391;50.922;6.928;2023-05-19T05:16:16;4.63;;;2.22;;
34697;SDS011;61391;50.922;6.928;2023-05-19T05:18:42;3.10;;;2.33;;
34697;SDS011;61391;50.922;6.928;2023-05-19T05:21:08;2.53;;;2.15;;
34697;SDS011;61391;50.922;6.928;2023-05-19T05:23:34;1.90;;;1.58;;
34697;SDS011;61391;50.922;6.928;2023-05-19T05:26:00;2.67;;;1.85;;
34697;SDS011;61391;50.922;6.928;2023-05-19T05:31:55;2.22;;;1.70;;
34697;SDS011;61391;50.922;6.928;2023-05-19T05:34:20;2.38;;;1.90;;
34697;SDS011;61391;50.922;6.928;2023-05-19T05:36:46;2.03;;;1.70;;
34697;SDS011;61391;50.922;6.928;2023-05-19T05:39:12;1.83;;;1.73;;
34697;SDS011;61391;50.922;6.928;2023-05-19T05:41:38;6.78;;;2.17;;
34697;SDS011;61391;50.922;6.928;2023-05-19T05:44:03;2.85;;;1.90;;
34697;SDS011;61391;50.922;6.928;2023-05-19T05:46:30;2.72;;;1.98;;
34697;SDS011;61391;50.922;6.928;2023-05-19T05:48:56;2.17;;;1.27;;
34697;SDS011;61391;50.922;6.928;2023-05-19T05:51:22;2.42;;;2.20;;
34697;SDS011;61391;50.922;6.928;2023-05-19T05:53:51;2.30;;;1.58;;
34697;SDS011;61391;50.922;6.928;2023-05-19T05:56:19;2.50;;;1.90;;
34697;SDS011;61391;50.922;6.928;2023-05-19T05:58:45;6.05;;;1.60;;
34697;SDS011;61391;50.922;6.928;2023-05-19T06:01:11;2.58;;;1.13;;
34697;SDS011;61391;50.922;6.928;2023-05-19T06:03:38;1.65;;;0.90;;
34697;SDS011;61391;50.922;6.928;2023-05-19T06:06:05;2.30;;;0.90;;
34697;SDS011;61391;50.922;6.928;2023-05-19T06:08:31;1.33;;;0.85;;
34697;SDS011;61391;50.922;6.928;2023-05-19T06:10:57;1.35;;;0.77;;
34697;SDS011;61391;50.922;6.928;2023-05-19T06:13:22;1.63;;;0.90;;
34697;SDS011;61391;50.922;6.928;2023-05-19T06:15:50;3.95;;;1.80;;
34697;SDS011;61391;50.922;6.928;2023-05-19T06:18:16;1.30;;;0.82;;
34697;SDS011;61391;50.922;6.928;2023-05-19T06:20:42;3.22;;;0.90;;
34697;SDS011;61391;50.922;6.928;2023-05-19T06:23:07;1.30;;;0.75;;
34697;SDS011;61391;50.922;6.928;2023-05-19T06:25:33;1.30;;;0.80;;
34697;SDS011;61391;50.922;6.928;2023-05-19T06:27:58;2.20;;;1.27;;
34697;SDS011;61391;50.922;6.928;2023-05-19T06:30:26;2.42;;;0.77;;
34697;SDS011;61391;50.922;6.928;2023-05-19T06:32:51;1.17;;;0.82;;
34697;SDS011;61391;50.922;6.928;2023-05-19T06:35:17;2.40;;;1.30;;
34697;SDS011;61391;50.922;6.928;2023-05-19T06:37:42;1.92;;;1.00;;
34697;SDS011;61391;50.922;6.928;2023-05-19T06:40:08;0.65;;;0.65;;
34697;SDS011;61391;50.922;6.928;2023-05-19T06:42:34;1.42;;;0.73;;
34697;SDS011;61391;50.922;6.928;2023-05-19T06:45:00;1.13;;;1.00;;
34697;SDS011;61391;50.922;6.928;2023-05-19T06:47:27;3.35;;;1.02;;
34697;SDS011;61391;50.922;6.928;2023-05-19T06:49:52;0.90;;;0.50;;
34697;SDS011;61391;50.922;6.928;2023-05-19T06:52:19;2.55;;;0.70;;
34697;SDS011;61391;50.922;6.928;2023-05-19T06:54:45;1.55;;;1.13;;
34697;SDS011;61391;50.922;6.928;2023-05-19T06:57:12;1.23;;;1.08;;
34697;SDS011;61391;50.922;6.928;2023-05-19T06:59:38;0.98;;;0.60;;
34697;SDS011;61391;50.922;6.928;2023-05-19T07:02:06;0.77;;;0.60;;
34697;SDS011;61391;50.922;6.928;2023-05-19T07:04:31;2.63;;;0.80;;
34697;SDS011;61391;50.922;6.928;2023-05-19T07:06:57;2.60;;;1.08;;
34697;SDS011;61391;50.922;6.928;2023-05-19T07:09:24;1.58;;;0.90;;
34697;SDS011;61391;50.922;6.928;2023-05-19T07:15:13;1.40;;;0.77;;
34697;SDS011;61391;50.922;6.928;2023-05-19T07:17:39;0.98;;;0.60;;
34697;SDS011;61391;50.922;6.928;2023-05-19T07:20:04;2.05;;;0.80;;
34697;SDS011;61391;50.922;6.928;2023-05-19T07:22:31;1.73;;;0.70;;
34697;SDS011;61391;50.922;6.928;2023-05-19T07:24:59;1.73;;;0.60;;
34697;SDS011;61391;50.922;6.928;2023-05-19T07:27:25;1.13;;;0.70;;
34697;SDS011;61391;50.922;6.928;2023-05-19T07:29:50;1.02;;;0.57;;
34697;SDS011;61391;50.922;6.928;2023-05-19T07:32:17;1.42;;;0.77;;
34697;SDS011;61391;50.922;6.928;2023-05-19T07:34:43;1.60;;;1.10;;
34697;SDS011;61391;50.922;6.928;2023-05-19T07:37:10;1.42;;;0.73;;
34697;SDS011;61391;50.922;6.928;2023-05-19T07:39:36;1.30;;;0.47;;
34697;SDS011;61391;50.922;6.928;2023-05-19T07:42:04;1.40;;;0.57;;
34697;SDS011;61391;50.922;6.928;2023-05-19T07:44:30;1.20;;;0.70;;
34697;SDS011;61391;50.922;6.928;2023-05-19T07:46:56;0.70;;;0.50;;
34697;SDS011;61391;50.922;6.928;2023-05-19T07:49:21;2.20;;;0.50;;
34697;SDS011;61391;50.922;6.928;2023-05-19T07:51:47;1.05;;;0.60;;
34697;SDS011;61391;50.922;6.928;2023-05-19T07:54:13;1.15;;;0.70;;
34697;SDS011;61391;50.922;6.928;2023-05-19T07:56:39;1.05;;;0.82;;
34697;SDS011;61391;50.922;6.928;2023-05-19T07:59:05;1.27;;;0.68;;
34697;SDS011;61391;50.922;6.928;2023-05-19T08:01:32;0.90;;;0.50;;
34697;SDS011;61391;50.922;6.928;2023-05-19T08:03:58;0.82;;;0.50;;
34697;SDS011;61391;50.922;6.928;2023-05-19T08:06:24;2.67;;;1.55;;
34697;SDS011;61391;50.922;6.928;2023-05-19T08:08:50;2.58;;;1.40;;
34697;SDS011;61391;50.922;6.928;2023-05-19T08:11:16;0.88;;;0.65;;
34697;SDS011;61391;50.922;6.928;2023-05-19T08:13:42;1.45;;;0.70;;
34697;SDS011;61391;50.922;6.928;2023-05-19T08:16:08;0.80;;;0.50;;
34697;SDS011;61391;50.922;6.928;2023-05-19T08:18:33;1.80;;;0.82;;
34697;SDS011;61391;50.922;6.928;2023-05-19T08:21:00;1.42;;;0.57;;
34697;SDS011;61391;50.922;6.928;2023-05-19T08:23:26;0.90;;;0.50;;
34697;SDS011;61391;50.922;6.928;2023-05-19T08:25:52;0.52;;;0.52;;
34697;SDS011;61391;50.922;6.928;2023-05-19T08:28:17;1.35;;;0.70;;
34697;SDS011;61391;50.922;6.928;2023-05-19T08:30:43;0.73;;;0.50;;
34697;SDS011;61391;50.922;6.928;2023-05-19T08:33:11;1.67;;;0.85;;
34697;SDS011;61391;50.922;6.928;2023-05-19T08:35:37;0.95;;;0.57;;
34697;SDS011;61391;50.922;6.928;2023-05-19T08:38:03;1.77;;;0.80;;
34697;SDS011;61391;50.922;6.928;2023-05-19T08:40:29;1.27;;;0.75;;
34697;SDS011;61391;50.922;6.928;2023-05-19T08:42:55;0.80;;;0.80;;
34697;SDS011;61391;50.922;6.928;2023-05-19T08:45:23;1.23;;;0.68;;
34697;SDS011;61391;50.922;6.928;2023-05-19T08:47:49;0.52;;;0.52;;
34697;SDS011;61391;50.922;6.928;2023-05-19T08:50:16;1.23;;;0.63;;
34697;SDS011;61391;50.922;6.928;2023-05-19T08:58:09;0.50;;;0.50;;
34697;SDS011;61391;50.922;6.928;2023-05-19T09:00:39;0.98;;;0.50;;
34697;SDS011;61391;50.922;6.928;2023-05-19T09:03:05;1.27;;;0.50;;
34697;SDS011;61391;50.922;6.928;2023-05-19T09:05:31;1.10;;;0.63;;
34697;SDS011;61391;50.922;6.928;2023-05-19T09:07:58;3.40;;;0.95;;
34697;SDS011;61391;50.922;6.928;2023-05-19T09:10:26;0.90;;;0.63;;
34697;SDS011;61391;50.922;6.928;2023-05-19T09:12:52;1.52;;;0.70;;
34697;SDS011;61391;50.922;6.928;2023-05-19T09:15:18;1.40;;;0.70;;
34697;SDS011;61391;50.922;6.928;2023-05-19T09:17:49;1.92;;;0.63;;
34697;SDS011;61391;50.922;6.928;2023-05-19T09:20:15;5.28;;;0.70;;
34697;SDS011;61391;50.922;6.928;2023-05-19T09:22:44;0.50;;;0.50;;
34697;SDS011;61391;50.922;6.928;2023-05-19T09:25:45;1.85;;;0.82;;
34697;SDS011;61391;50.922;6.928;2023-05-19T09:28:13;0.43;;;0.43;;
34697;SDS011;61391;50.922;6.928;2023-05-19T09:30:41;0.70;;;0.50;;
34697;SDS011;61391;50.922;6.928;2023-05-19T09:33:08;0.80;;;0.80;;
34697;SDS011;61391;50.922;6.928;2023-05-19T09:35:45;1.30;;;0.63;;
34697;SDS011;61391;50.922;6.928;2023-05-19T09:38:15;2.47;;;0.68;;
34697;SDS011;61391;50.922;6.928;2023-05-19T09:40:42;2.15;;;0.80;;
34697;SDS011;61391;50.922;6.928;2023-05-19T09:43:08;0.73;;;0.60;;
34697;SDS011;61391;50.922;6.928;2023-05-19T09:45:34;0.80;;;0.70;;
34697;SDS011;61391;50.922;6.928;2023-05-19T09:48:02;0.60;;;0.60;;
34697;SDS011;61391;50.922;6.928;2023-05-19T09:50:29;1.77;;;0.63;;
34697;SDS011;61391;50.922;6.928;2023-05-19T09:52:56;1.20;;;0.73;;
34697;SDS011;61391;50.922;6.928;2023-05-19T09:55:24;1.08;;;0.60;;
34697;SDS011;61391;50.922;6.928;2023-05-19T09:57:53;2.63;;;1.05;;
34697;SDS011;61391;50.922;6.928;2023-05-19T10:00:20;1.95;;;0.70;;
34697;SDS011;61391;50.922;6.928;2023-05-19T10:02:47;0.70;;;0.50;;
34697;SDS011;61391;50.922;6.928;2023-05-19T10:05:15;1.60;;;0.82;;
34697;SDS011;61391;50.922;6.928;2023-05-19T10:07:44;2.17;;;0.90;;
34697;SDS011;61391;50.922;6.928;2023-05-19T10:10:12;1.00;;;0.90;;
34697;SDS011;61391;50.922;6.928;2023-05-19T10:12:38;0.70;;;0.43;;
34697;SDS011;61391;50.922;6.928;2023-05-19T10:15:06;0.82;;;0.63;;
34697;SDS011;61391;50.922;6.928;2023-05-19T10:17:39;0.70;;;0.68;;
34697;SDS011;61391;50.922;6.928;2023-05-19T10:20:06;2.08;;;0.90;;
34697;SDS011;61391;50.922;6.928;2023-05-19T10:22:35;0.85;;;0.52;;
34697;SDS011;61391;50.922;6.928;2023-05-19T10:25:03;1.35;;;0.70;;
34697;SDS011;61391;50.922;6.928;2023-05-19T10:27:30;0.82;;;0.60;;
34697;SDS011;61391;50.922;6.928;2023-05-19T10:29:59;0.60;;;0.60;;
34697;SDS011;61391;50.922;6.928;2023-05-19T10:32:29;1.58;;;0.80;;
34697;SDS011;61391;50.922;6.928;2023-05-19T10:43:43;1.13;;;0.90;;
34697;SDS011;61391;50.922;6.928;2023-05-19T10:46:30;1.90;;;0.57;;
34697;SDS011;61391;50.922;6.928;2023-05-19T10:48:55;0.73;;;0.70;;
34697;SDS011;61391;50.922;6.928;2023-05-19T10:51:30;0.88;;;0.70;;
34697;SDS011;61391;50.922;6.928;2023-05-19T10:53:57;0.93;;;0.47;;
34697;SDS011;61391;50.922;6.928;2023-05-19T10:56:29;0.50;;;0.50;;
34697;SDS011;61391;50.922;6.928;2023-05-19T10:58:58;0.77;;;0.55;;
34697;SDS011;61391;50.922;6.928;2023-05-19T11:01:32;0.93;;;0.63;;
34697;SDS011;61391;50.922;6.928;2023-05-19T11:04:06;1.02;;;0.65;;
34697;SDS011;61391;50.922;6.928;2023-05-19T11:06:36;1.42;;;0.60;;
34697;SDS011;61391;50.922;6.928;2023-05-19T11:09:10;1.55;;;0.68;;
34697;SDS011;61391;50.922;6.928;2023-05-19T11:11:48;1.15;;;0.68;;
34697;SDS011;61391;50.922;6.928;2023-05-19T11:14:16;0.52;;;0.52;;
34697;SDS011;61391;50.922;6.928;2023-05-19T11:16:45;0.98;;;0.60;;
34697;SDS011;61391;50.922;6.928;2023-05-19T11:19:28;1.73;;;0.85;;
34697;SDS011;61391;50.922;6.928;2023-05-19T11:21:55;0.77;;;0.70;;
34697;SDS011;61391;50.922;6.928;2023-05-19T11:24:31;1.15;;;0.43;;
34697;SDS011;61391;50.922;6.928;2023-05-19T11:26:58;2.10;;;0.73;;
34697;SDS011;61391;50.922;6.928;2023-05-19T11:29:40;0.55;;;0.55;;
34697;SDS011;61391;50.922;6.928;2023-05-19T11:32:06;3.33;;;0.85;;
34697;SDS011;61391;50.922;6.928;2023-05-19T11:34:33;0.82;;;0.60;;
34697;SDS011;61391;50.922;6.928;2023-05-19T11:37:01;1.08;;;0.60;;
34697;SDS011;61391;50.922;6.928;2023-05-19T11:39:28;2.53;;;0.57;;
34697;SDS011;61391;50.922;6.928;2023-05-19T11:41:54;1.48;;;0.85;;
34697;SDS011;61391;50.922;6.928;2023-05-19T11:44:20;1.02;;;0.60;;
34697;SDS011;61391;50.922;6.928;2023-05-19T11:46:46;1.33;;;0.77;;
34697;SDS011;61391;50.922;6.928;2023-05-19T11:49:11;1.90;;;0.70;;
34697;SDS011;61391;50.922;6.928;2023-05-19T11:51:37;1.00;;;0.68;;
34697;SDS011;61391;50.922;6.928;2023-05-19T11:54:03;0.65;;;0.50;;
34697;SDS011;61391;50.922;6.928;2023-05-19T11:56:32;2.08;;;1.17;;
34697;SDS011;61391;50.922;6.928;2023-05-19T11:58:59;2.95;;;0.98;;
34697;SDS011;61391;50.922;6.928;2023-05-19T12:01:26;2.20;;;1.13;;
34697;SDS011;61391;50.922;6.928;2023-05-19T12:03:52;1.63;;;0.55;;
34697;SDS011;61391;50.922;6.928;2023-05-19T12:06:18;0.68;;;0.60;;
34697;SDS011;61391;50.922;6.928;2023-05-19T12:08:43;0.70;;;0.70;;
34697;SDS011;61391;50.922;6.928;2023-05-19T12:11:09;0.75;;;0.50;;
34697;SDS011;61391;50.922;6.928;2023-05-19T12:13:35;1.02;;;0.73;;
34697;SDS011;61391;50.922;6.928;2023-05-19T12:16:02;1.95;;;0.50;;
34697;SDS011;61391;50.922;6.928;2023-05-19T12:18:29;0.85;;;0.70;;
34697;SDS011;61391;50.922;6.928;2023-05-19T12:20:56;0.77;;;0.60;;
34697;SDS011;61391;50.922;6.928;2023-05-19T12:23:24;1.83;;;0.60;;
34697;SDS011;61391;50.922;6.928;2023-05-19T12:25:51;0.63;;;0.63;;
34697;SDS011;61391;50.922;6.928;2023-05-19T12:28:19;0.73;;;0.73;;
34697;SDS011;61391;50.922;6.928;2023-05-19T12:30:48;0.60;;;0.50;;
34697;SDS011;61391;50.922;6.928;2023-05-19T12:33:16;1.20;;;0.80;;
34697;SDS011;61391;50.922;6.928;2023-05-19T12:35:47;0.70;;;0.60;;
34697;SDS011;61391;50.922;6.928;2023-05-19T12:38:14;0.85;;;0.70;;
34697;SDS011;61391;50.922;6.928;2023-05-19T12:40:40;1.35;;;0.50;;
34697;SDS011;61391;50.922;6.928;2023-05-19T12:43:07;1.65;;;0.70;;
34697;SDS011;61391;50.922;6.928;2023-05-19T12:45:36;0.47;;;0.47;;
34697;SDS011;61391;50.922;6.928;2023-05-19T12:48:03;1.15;;;0.60;;
34697;SDS011;61391;50.922;6.928;2023-05-19T12:50:30;1.45;;;1.02;;
34697;SDS011;61391;50.922;6.928;2023-05-19T12:52:57;0.68;;;0.52;;
34697;SDS011;61391;50.922;6.928;2023-05-19T12:55:23;1.27;;;0.80;;
34697;SDS011;61391;50.922;6.928;2023-05-19T12:57:50;0.93;;;0.60;;
34697;SDS011;61391;50.922;6.928;2023-05-19T13:00:22;1.50;;;0.68;;
34697;SDS011;61391;50.922;6.928;2023-05-19T13:03:03;0.85;;;0.80;;
34697;SDS011;61391;50.922;6.928;2023-05-19T13:05:32;7.07;;;1.65;;
34697;SDS011;61391;50.922;6.928;2023-05-19T13:08:06;1.13;;;0.60;;
34697;SDS011;61391;50.922;6.928;2023-05-19T13:10:33;2.35;;;0.68;;
34697;SDS011;61391;50.922;6.928;2023-05-19T13:13:00;2.33;;;0.82;;
34697;SDS011;61391;50.922;6.928;2023-05-19T13:15:28;1.20;;;0.60;;
34697;SDS011;61391;50.922;6.928;2023-05-19T13:17:58;1.40;;;0.40;;
34697;SDS011;61391;50.922;6.928;2023-05-19T13:20:25;1.67;;;1.02;;
34697;SDS011;61391;50.922;6.928;2023-05-19T13:22:51;0.93;;;0.40;;
34697;SDS011;61391;50.922;6.928;2023-05-19T13:25:16;0.82;;;0.43;;
34697;SDS011;61391;50.922;6.928;2023-05-19T13:27:45;0.75;;;0.57;;
34697;SDS011;61391;50.922;6.928;2023-05-19T13:30:14;0.52;;;0.43;;
34697;SDS011;61391;50.922;6.928;2023-05-19T13:32:40;1.58;;;0.60;;
34697;SDS011;61391;50.922;6.928;2023-05-19T13:35:07;0.57;;;0.50;;
34697;SDS011;61391;50.922;6.928;2023-05-19T13:37:34;0.93;;;0.47;;
34697;SDS011;61391;50.922;6.928;2023-05-19T13:40:00;1.15;;;0.57;;
34697;SDS011;61391;50.922;6.928;2023-05-19T13:42:26;0.90;;;0.60;;
34697;SDS011;61391;50.922;6.928;2023-05-19T13:44:55;0.70;;;0.52;;
34697;SDS011;61391;50.922;6.928;2023-05-19T13:47:23;0.70;;;0.70;;
34697;SDS011;61391;50.922;6.928;2023-05-19T13:49:50;1.17;;;0.68;;
34697;SDS011;61391;50.922;6.928;2023-05-19T13:52:16;1.73;;;0.98;;
34697;SDS011;61391;50.922;6.928;2023-05-19T13:54:43;1.05;;;0.60;;
34697;SDS011;61391;50.922;6.928;2023-05-19T13:57:10;2.05;;;0.90;;
34697;SDS011;61391;50.922;6.928;2023-05-19T13:59:36;1.80;;;0.70;;
34697;SDS011;61391;50.922;6.928;2023-05-19T14:02:02;0.93;;;0.70;;
34697;SDS011;61391;50.922;6.928;2023-05-19T14:04:28;1.58;;;0.95;;
34697;SDS011;61391;50.922;6.928;2023-05-19T14:06:54;0.50;;;0.50;;
34697;SDS011;61391;50.922;6.928;2023-05-19T14:09:20;2.75;;;0.60;;
34697;SDS011;61391;50.922;6.928;2023-05-19T14:11:46;0.75;;;0.68;;
34697;SDS011;61391;50.922;6.928;2023-05-19T14:14:13;0.52;;;0.52;;
34697;SDS011;61391;50.922;6.928;2023-05-19T14:16:39;1.02;;;0.65;;
34697;SDS011;61391;50.922;6.928;2023-05-19T14:19:05;0.85;;;0.40;;
34697;SDS011;61391;50.922;6.928;2023-05-19T14:24:53;0.52;;;0.52;;
34697;SDS011;61391;50.922;6.928;2023-05-19T14:27:19;0.95;;;0.57;;
34697;SDS011;61391;50.922;6.928;2023-05-19T14:29:44;0.60;;;0.47;;
34697;SDS011;61391;50.922;6.928;2023-05-19T14:32:10;0.75;;;0.50;;
34697;SDS011;61391;50.922;6.928;2023-05-19T14:34:36;0.98;;;0.50;;
34697;SDS011;61391;50.922;6.928;2023-05-19T14:37:01;0.57;;;0.52;;
34697;SDS011;61391;50.922;6.928;2023-05-19T14:39:28;2.45;;;0.60;;
34697;SDS011;61391;50.922;6.928;2023-05-19T14:41:54;2.30;;;0.55;;
34697;SDS011;61391;50.922;6.928;2023-05-19T14:44:20;0.88;;;0.60;;
34697;SDS011;61391;50.922;6.928;2023-05-19T14:46:45;1.42;;;0.50;;
34697;SDS011;61391;50.922;6.928;2023-05-19T14:49:11;1.48;;;0.80;;
34697;SDS011;61391;50.922;6.928;2023-05-19T14:51:40;1.33;;;0.70;;
34697;SDS011;61391;50.922;6.928;2023-05-19T14:56:48;0.98;;;0.60;;
34697;SDS011;61391;50.922;6.928;2023-05-19T14:59:18;1.40;;;0.55;;
34697;SDS011;61391;50.922;6.928;2023-05-19T15:02:05;0.88;;;0.60;;
34697;SDS011;61391;50.922;6.928;2023-05-19T15:07:53;1.45;;;0.63;;
34697;SDS011;61391;50.922;6.928;2023-05-19T15:13:45;1.00;;;0.70;;
34697;SDS011;61391;50.922;6.928;2023-05-19T15:19:41;0.75;;;0.75;;
34697;SDS011;61391;50.922;6.928;2023-05-19T15:22:14;0.55;;;0.50;;
34697;SDS011;61391;50.922;6.928;2023-05-19T15:24:40;0.63;;;0.43;;
34697;SDS011;61391;50.922;6.928;2023-05-19T15:27:08;1.38;;;0.95;;
34697;SDS011;61391;50.922;6.928;2023-05-19T15:29:34;0.63;;;0.50;;
34697;SDS011;61391;50.922;6.928;2023-05-19T15:32:00;1.63;;;1.02;;
34697;SDS011;61391;50.922;6.928;2023-05-19T15:34:26;0.82;;;0.82;;
34697;SDS011;61391;50.922;6.928;2023-05-19T15:40:13;1.23;;;0.75;;
34697;SDS011;61391;50.922;6.928;2023-05-19T15:46:02;1.20;;;0.55;;
34697;SDS011;61391;50.922;6.928;2023-05-19T15:48:29;0.82;;;0.40;;
34697;SDS011;61391;50.922;6.928;2023-05-19T15:50:56;1.90;;;0.80;;
34697;SDS011;61391;50.922;6.928;2023-05-19T15:53:25;1.38;;;0.55;;
34697;SDS011;61391;50.922;6.928;2023-05-19T15:55:50;0.52;;;0.52;;
34697;SDS011;61391;50.922;6.928;2023-05-19T15:58:16;0.73;;;0.60;;
34697;SDS011;61391;50.922;6.928;2023-05-19T16:00:42;2.25;;;1.13;;
34697;SDS011;61391;50.922;6.928;2023-05-19T16:03:07;0.82;;;0.68;;
34697;SDS011;61391;50.922;6.928;2023-05-19T16:05:33;1.67;;;1.00;;
34697;SDS011;61391;50.922;6.928;2023-05-19T16:07:59;1.48;;;1.27;;
34697;SDS011;61391;50.922;6.928;2023-05-19T16:10:24;1.52;;;0.60;;
34697;SDS011;61391;50.922;6.928;2023-05-19T16:16:12;1.08;;;0.90;;
34697;SDS011;61391;50.922;6.928;2023-05-19T16:18:38;1.95;;;0.70;;
34697;SDS011;61391;50.922;6.928;2023-05-19T16:21:04;1.52;;;0.50;;
34697;SDS011;61391;50.922;6.928;2023-05-19T16:23:29;0.43;;;0.43;;